sensor_id;sensor_type;location;lat;lon;timestamp;P1;durP1;ratioP1;P2;durP2;ratioP2
38937;SDS011;24727;51.974;20.868;2023-02-17T00:00:14;59.75;;;29.48;;
38937;SDS011;24727;51.974;20.868;2023-02-17T00:02:41;53.78;;;27.95;;
38937;SDS011;24727;51.974;20.868;2023-02-17T00:05:08;60.47;;;30.42;;
38937;SDS011;24727;51.974;20.868;2023-02-17T00:07:34;62.70;;;29.30;;
38937;SDS011;24727;51.974;20.868;2023-02-17T00:10:02;57.38;;;29.35;;
38937;SDS011;24727;51.974;20.868;2023-02-17T00:12:28;59.13;;;29.40;;
38937;SDS011;24727;51.974;20.868;2023-02-17T00:14:55;61.13;;;28.23;;
38937;SDS011;24727;51.974;20.868;2023-02-17T00:17:21;62.55;;;28.73;;
38937;SDS011;24727;51.974;20.868;2023-02-17T00:19:47;58.47;;;28.20;;
38937;SDS011;24727;51.974;20.868;2023-02-17T00:22:14;58.40;;;29.95;;
38937;SDS011;24727;51.974;20.868;2023-02-17T00:27:16;62.78;;;29.77;;
38937;SDS011;24727;51.974;20.868;2023-02-17T00:32:17;57.22;;;30.20;;
38937;SDS011;24727;51.974;20.868;2023-02-17T00:34:43;62.63;;;30.02;;
38937;SDS011;24727;51.974;20.868;2023-02-17T00:37:09;58.25;;;28.30;;
38937;SDS011;24727;51.974;20.868;2023-02-17T00:39:35;57.45;;;26.95;;
38937;SDS011;24727;51.974;20.868;2023-02-17T00:42:02;54.33;;;26.02;;
38937;SDS011;24727;51.974;20.868;2023-02-17T00:44:28;45.88;;;23.13;;
38937;SDS011;24727;51.974;20.868;2023-02-17T00:46:55;51.95;;;25.67;;
38937;SDS011;24727;51.974;20.868;2023-02-17T00:49:24;44.85;;;22.02;;
38937;SDS011;24727;51.974;20.868;2023-02-17T00:51:51;52.50;;;24.70;;
38937;SDS011;24727;51.974;20.868;2023-02-17T00:54:18;47.58;;;24.35;;
38937;SDS011;24727;51.974;20.868;2023-02-17T00:56:44;51.25;;;25.52;;
38937;SDS011;24727;51.974;20.868;2023-02-17T00:59:10;50.08;;;24.90;;
38937;SDS011;24727;51.974;20.868;2023-02-17T01:01:38;47.60;;;23.83;;
38937;SDS011;24727;51.974;20.868;2023-02-17T01:04:04;47.25;;;25.05;;
38937;SDS011;24727;51.974;20.868;2023-02-17T01:06:31;49.33;;;23.75;;
38937;SDS011;24727;51.974;20.868;2023-02-17T01:09:01;48.08;;;23.52;;
38937;SDS011;24727;51.974;20.868;2023-02-17T01:11:28;58.25;;;27.42;;
38937;SDS011;24727;51.974;20.868;2023-02-17T01:13:56;54.00;;;26.45;;
38937;SDS011;24727;51.974;20.868;2023-02-17T01:16:26;49.72;;;26.15;;
38937;SDS011;24727;51.974;20.868;2023-02-17T01:18:55;58.92;;;27.35;;
38937;SDS011;24727;51.974;20.868;2023-02-17T01:21:25;59.90;;;27.77;;
38937;SDS011;24727;51.974;20.868;2023-02-17T01:23:53;55.95;;;27.30;;
38937;SDS011;24727;51.974;20.868;2023-02-17T01:26:21;56.90;;;27.15;;
38937;SDS011;24727;51.974;20.868;2023-02-17T01:28:49;55.38;;;26.52;;
38937;SDS011;24727;51.974;20.868;2023-02-17T01:31:17;56.45;;;25.60;;
38937;SDS011;24727;51.974;20.868;2023-02-17T01:33:44;53.72;;;26.92;;
38937;SDS011;24727;51.974;20.868;2023-02-17T01:36:12;55.88;;;26.73;;
38937;SDS011;24727;51.974;20.868;2023-02-17T01:38:40;53.42;;;27.08;;
38937;SDS011;24727;51.974;20.868;2023-02-17T01:41:07;42.10;;;23.48;;
38937;SDS011;24727;51.974;20.868;2023-02-17T01:43:33;46.47;;;23.83;;
38937;SDS011;24727;51.974;20.868;2023-02-17T01:46:01;48.17;;;24.73;;
38937;SDS011;24727;51.974;20.868;2023-02-17T01:51:14;51.88;;;25.73;;
38937;SDS011;24727;51.974;20.868;2023-02-17T01:53:49;53.85;;;27.27;;
38937;SDS011;24727;51.974;20.868;2023-02-17T01:56:20;57.90;;;27.27;;
38937;SDS011;24727;51.974;20.868;2023-02-17T01:58:54;56.22;;;30.05;;
38937;SDS011;24727;51.974;20.868;2023-02-17T02:01:24;60.30;;;29.85;;
38937;SDS011;24727;51.974;20.868;2023-02-17T02:03:52;65.88;;;28.30;;
38937;SDS011;24727;51.974;20.868;2023-02-17T02:06:19;61.53;;;29.52;;
38937;SDS011;24727;51.974;20.868;2023-02-17T02:09:11;62.58;;;30.80;;
38937;SDS011;24727;51.974;20.868;2023-02-17T02:11:39;60.72;;;31.33;;
38937;SDS011;24727;51.974;20.868;2023-02-17T02:14:06;61.80;;;29.85;;
38937;SDS011;24727;51.974;20.868;2023-02-17T02:16:45;67.68;;;31.25;;
38937;SDS011;24727;51.974;20.868;2023-02-17T02:19:33;64.82;;;30.40;;
38937;SDS011;24727;51.974;20.868;2023-02-17T02:35:50;73.45;;;31.02;;
38937;SDS011;24727;51.974;20.868;2023-02-17T02:38:33;64.60;;;32.72;;
38937;SDS011;24727;51.974;20.868;2023-02-17T02:41:20;62.30;;;30.42;;
38937;SDS011;24727;51.974;20.868;2023-02-17T02:46:17;62.47;;;30.77;;
38937;SDS011;24727;51.974;20.868;2023-02-17T02:48:43;64.43;;;30.60;;
38937;SDS011;24727;51.974;20.868;2023-02-17T02:54:36;64.05;;;30.50;;
38937;SDS011;24727;51.974;20.868;2023-02-17T03:02:24;69.68;;;30.90;;
38937;SDS011;24727;51.974;20.868;2023-02-17T03:04:56;64.93;;;32.35;;
38937;SDS011;24727;51.974;20.868;2023-02-17T03:07:30;71.95;;;33.28;;
38937;SDS011;24727;51.974;20.868;2023-02-17T03:10:00;71.40;;;33.17;;
38937;SDS011;24727;51.974;20.868;2023-02-17T03:12:26;64.28;;;31.60;;
38937;SDS011;24727;51.974;20.868;2023-02-17T03:15:02;64.95;;;32.22;;
38937;SDS011;24727;51.974;20.868;2023-02-17T03:17:33;62.17;;;31.08;;
38937;SDS011;24727;51.974;20.868;2023-02-17T03:20:00;60.38;;;31.20;;
38937;SDS011;24727;51.974;20.868;2023-02-17T03:22:33;60.40;;;30.30;;
38937;SDS011;24727;51.974;20.868;2023-02-17T03:25:01;63.33;;;29.48;;
38937;SDS011;24727;51.974;20.868;2023-02-17T03:27:29;57.78;;;28.45;;
38937;SDS011;24727;51.974;20.868;2023-02-17T03:29:55;63.85;;;32.60;;
38937;SDS011;24727;51.974;20.868;2023-02-17T03:32:21;64.85;;;30.77;;
38937;SDS011;24727;51.974;20.868;2023-02-17T03:34:47;65.15;;;30.92;;
38937;SDS011;24727;51.974;20.868;2023-02-17T03:37:14;73.68;;;32.25;;
38937;SDS011;24727;51.974;20.868;2023-02-17T03:39:40;62.78;;;29.90;;
38937;SDS011;24727;51.974;20.868;2023-02-17T03:42:05;64.85;;;31.15;;
38937;SDS011;24727;51.974;20.868;2023-02-17T03:44:32;59.15;;;30.70;;
38937;SDS011;24727;51.974;20.868;2023-02-17T03:46:58;67.78;;;31.58;;
38937;SDS011;24727;51.974;20.868;2023-02-17T03:49:24;64.63;;;30.10;;
38937;SDS011;24727;51.974;20.868;2023-02-17T03:51:50;62.10;;;30.05;;
38937;SDS011;24727;51.974;20.868;2023-02-17T03:54:22;64.40;;;32.42;;
38937;SDS011;24727;51.974;20.868;2023-02-17T03:56:48;62.22;;;30.38;;
38937;SDS011;24727;51.974;20.868;2023-02-17T03:59:22;62.50;;;29.20;;
38937;SDS011;24727;51.974;20.868;2023-02-17T04:01:48;63.30;;;30.92;;
38937;SDS011;24727;51.974;20.868;2023-02-17T04:04:15;62.65;;;30.67;;
38937;SDS011;24727;51.974;20.868;2023-02-17T04:06:41;60.38;;;31.73;;
38937;SDS011;24727;51.974;20.868;2023-02-17T04:09:07;66.32;;;30.80;;
38937;SDS011;24727;51.974;20.868;2023-02-17T04:11:33;58.58;;;30.00;;
38937;SDS011;24727;51.974;20.868;2023-02-17T04:13:59;61.13;;;29.40;;
38937;SDS011;24727;51.974;20.868;2023-02-17T04:16:25;59.85;;;30.55;;
38937;SDS011;24727;51.974;20.868;2023-02-17T04:18:51;64.18;;;31.05;;
38937;SDS011;24727;51.974;20.868;2023-02-17T04:21:17;60.40;;;29.77;;
38937;SDS011;24727;51.974;20.868;2023-02-17T04:23:42;64.40;;;30.25;;
38937;SDS011;24727;51.974;20.868;2023-02-17T04:26:08;62.75;;;30.55;;
38937;SDS011;24727;51.974;20.868;2023-02-17T04:28:38;61.38;;;30.98;;
38937;SDS011;24727;51.974;20.868;2023-02-17T04:31:05;68.65;;;31.35;;
38937;SDS011;24727;51.974;20.868;2023-02-17T04:33:31;65.25;;;30.75;;
38937;SDS011;24727;51.974;20.868;2023-02-17T04:35:58;68.10;;;33.33;;
38937;SDS011;24727;51.974;20.868;2023-02-17T04:38:25;65.88;;;32.10;;
38937;SDS011;24727;51.974;20.868;2023-02-17T04:40:53;66.68;;;32.40;;
38937;SDS011;24727;51.974;20.868;2023-02-17T04:43:21;71.00;;;32.42;;
38937;SDS011;24727;51.974;20.868;2023-02-17T04:45:48;72.18;;;32.03;;
38937;SDS011;24727;51.974;20.868;2023-02-17T04:48:14;71.13;;;35.28;;
38937;SDS011;24727;51.974;20.868;2023-02-17T04:50:40;69.50;;;32.80;;
38937;SDS011;24727;51.974;20.868;2023-02-17T04:53:07;70.60;;;34.10;;
38937;SDS011;24727;51.974;20.868;2023-02-17T04:55:34;73.63;;;35.90;;
38937;SDS011;24727;51.974;20.868;2023-02-17T04:58:00;70.28;;;33.45;;
38937;SDS011;24727;51.974;20.868;2023-02-17T05:00:27;70.13;;;33.88;;
38937;SDS011;24727;51.974;20.868;2023-02-17T05:02:53;71.05;;;35.50;;
38937;SDS011;24727;51.974;20.868;2023-02-17T05:05:18;71.53;;;33.95;;
38937;SDS011;24727;51.974;20.868;2023-02-17T05:07:45;74.60;;;34.50;;
38937;SDS011;24727;51.974;20.868;2023-02-17T05:10:12;80.47;;;37.85;;
38937;SDS011;24727;51.974;20.868;2023-02-17T05:12:40;75.57;;;34.67;;
38937;SDS011;24727;51.974;20.868;2023-02-17T05:15:06;74.63;;;34.78;;
38937;SDS011;24727;51.974;20.868;2023-02-17T05:17:33;79.22;;;35.75;;
38937;SDS011;24727;51.974;20.868;2023-02-17T05:20:00;73.07;;;34.55;;
38937;SDS011;24727;51.974;20.868;2023-02-17T05:22:26;75.88;;;34.22;;
38937;SDS011;24727;51.974;20.868;2023-02-17T05:24:52;71.32;;;34.67;;
38937;SDS011;24727;51.974;20.868;2023-02-17T05:27:18;76.22;;;34.42;;
38937;SDS011;24727;51.974;20.868;2023-02-17T05:29:45;76.82;;;34.50;;
38937;SDS011;24727;51.974;20.868;2023-02-17T05:32:11;67.78;;;32.58;;
38937;SDS011;24727;51.974;20.868;2023-02-17T05:34:40;70.65;;;34.28;;
38937;SDS011;24727;51.974;20.868;2023-02-17T05:37:06;73.30;;;34.03;;
38937;SDS011;24727;51.974;20.868;2023-02-17T05:39:34;74.03;;;33.63;;
38937;SDS011;24727;51.974;20.868;2023-02-17T05:42:01;77.95;;;36.08;;
38937;SDS011;24727;51.974;20.868;2023-02-17T05:44:34;73.03;;;35.33;;
38937;SDS011;24727;51.974;20.868;2023-02-17T05:47:00;73.25;;;34.13;;
38937;SDS011;24727;51.974;20.868;2023-02-17T05:49:27;71.13;;;33.13;;
38937;SDS011;24727;51.974;20.868;2023-02-17T05:51:53;70.18;;;35.85;;
38937;SDS011;24727;51.974;20.868;2023-02-17T05:54:19;69.38;;;33.00;;
38937;SDS011;24727;51.974;20.868;2023-02-17T05:56:46;75.13;;;34.83;;
38937;SDS011;24727;51.974;20.868;2023-02-17T05:59:12;72.28;;;34.08;;
38937;SDS011;24727;51.974;20.868;2023-02-17T06:01:38;67.72;;;32.97;;
38937;SDS011;24727;51.974;20.868;2023-02-17T06:04:04;69.03;;;33.90;;
38937;SDS011;24727;51.974;20.868;2023-02-17T06:06:32;63.50;;;31.90;;
38937;SDS011;24727;51.974;20.868;2023-02-17T06:08:59;72.40;;;33.90;;
38937;SDS011;24727;51.974;20.868;2023-02-17T06:11:25;78.18;;;36.55;;
38937;SDS011;24727;51.974;20.868;2023-02-17T06:13:50;77.15;;;35.75;;
38937;SDS011;24727;51.974;20.868;2023-02-17T06:16:16;68.20;;;34.42;;
38937;SDS011;24727;51.974;20.868;2023-02-17T06:18:42;67.20;;;34.15;;
38937;SDS011;24727;51.974;20.868;2023-02-17T06:21:08;66.53;;;33.30;;
38937;SDS011;24727;51.974;20.868;2023-02-17T06:23:34;67.70;;;32.00;;
38937;SDS011;24727;51.974;20.868;2023-02-17T06:26:02;61.85;;;31.65;;
38937;SDS011;24727;51.974;20.868;2023-02-17T06:28:28;63.17;;;31.20;;
38937;SDS011;24727;51.974;20.868;2023-02-17T06:30:55;59.70;;;32.25;;
38937;SDS011;24727;51.974;20.868;2023-02-17T06:33:21;63.95;;;30.83;;
38937;SDS011;24727;51.974;20.868;2023-02-17T06:35:48;68.75;;;34.00;;
38937;SDS011;24727;51.974;20.868;2023-02-17T06:38:15;63.50;;;29.63;;
38937;SDS011;24727;51.974;20.868;2023-02-17T06:40:42;64.13;;;31.30;;
38937;SDS011;24727;51.974;20.868;2023-02-17T06:43:08;67.00;;;31.98;;
38937;SDS011;24727;51.974;20.868;2023-02-17T06:45:35;65.63;;;31.13;;
38937;SDS011;24727;51.974;20.868;2023-02-17T06:48:00;60.20;;;28.50;;
38937;SDS011;24727;51.974;20.868;2023-02-17T06:50:26;66.22;;;29.60;;
38937;SDS011;24727;51.974;20.868;2023-02-17T06:52:52;60.17;;;29.52;;
38937;SDS011;24727;51.974;20.868;2023-02-17T06:55:18;57.97;;;27.83;;
38937;SDS011;24727;51.974;20.868;2023-02-17T06:57:44;58.00;;;27.70;;
38937;SDS011;24727;51.974;20.868;2023-02-17T07:00:12;59.03;;;29.40;;
38937;SDS011;24727;51.974;20.868;2023-02-17T07:02:38;56.33;;;28.58;;
38937;SDS011;24727;51.974;20.868;2023-02-17T07:05:04;58.22;;;29.35;;
38937;SDS011;24727;51.974;20.868;2023-02-17T07:07:31;53.35;;;26.85;;
38937;SDS011;24727;51.974;20.868;2023-02-17T07:09:57;62.10;;;28.00;;
38937;SDS011;24727;51.974;20.868;2023-02-17T07:12:23;58.67;;;27.65;;
38937;SDS011;24727;51.974;20.868;2023-02-17T07:14:49;62.83;;;30.25;;
38937;SDS011;24727;51.974;20.868;2023-02-17T07:17:16;56.40;;;27.27;;
38937;SDS011;24727;51.974;20.868;2023-02-17T07:19:43;54.90;;;27.38;;
38937;SDS011;24727;51.974;20.868;2023-02-17T07:22:09;55.00;;;26.42;;
38937;SDS011;24727;51.974;20.868;2023-02-17T07:24:35;55.35;;;28.33;;
38937;SDS011;24727;51.974;20.868;2023-02-17T07:27:02;53.92;;;27.23;;
38937;SDS011;24727;51.974;20.868;2023-02-17T07:29:30;56.47;;;28.38;;
38937;SDS011;24727;51.974;20.868;2023-02-17T07:31:56;52.42;;;29.85;;
38937;SDS011;24727;51.974;20.868;2023-02-17T07:34:22;52.65;;;26.77;;
38937;SDS011;24727;51.974;20.868;2023-02-17T07:36:48;50.33;;;28.25;;
38937;SDS011;24727;51.974;20.868;2023-02-17T07:39:14;57.55;;;30.25;;
38937;SDS011;24727;51.974;20.868;2023-02-17T07:41:40;52.58;;;26.55;;
38937;SDS011;24727;51.974;20.868;2023-02-17T07:46:36;49.55;;;26.38;;
38937;SDS011;24727;51.974;20.868;2023-02-17T07:49:04;53.78;;;25.77;;
38937;SDS011;24727;51.974;20.868;2023-02-17T07:51:37;51.10;;;27.17;;
38937;SDS011;24727;51.974;20.868;2023-02-17T07:54:09;48.58;;;25.55;;
38937;SDS011;24727;51.974;20.868;2023-02-17T07:56:37;47.05;;;24.35;;
38937;SDS011;24727;51.974;20.868;2023-02-17T07:59:07;44.03;;;23.67;;
38937;SDS011;24727;51.974;20.868;2023-02-17T08:01:35;49.15;;;25.13;;
38937;SDS011;24727;51.974;20.868;2023-02-17T08:04:01;43.25;;;24.63;;
38937;SDS011;24727;51.974;20.868;2023-02-17T08:06:27;50.60;;;25.20;;
38937;SDS011;24727;51.974;20.868;2023-02-17T08:08:55;44.88;;;24.45;;
38937;SDS011;24727;51.974;20.868;2023-02-17T08:11:40;45.15;;;24.42;;
38937;SDS011;24727;51.974;20.868;2023-02-17T08:14:28;44.78;;;26.13;;
38937;SDS011;24727;51.974;20.868;2023-02-17T08:16:56;45.42;;;25.42;;
38937;SDS011;24727;51.974;20.868;2023-02-17T08:19:23;54.92;;;25.98;;
38937;SDS011;24727;51.974;20.868;2023-02-17T08:21:52;49.65;;;24.42;;
38937;SDS011;24727;51.974;20.868;2023-02-17T08:24:19;50.25;;;25.80;;
38937;SDS011;24727;51.974;20.868;2023-02-17T08:26:47;47.92;;;25.65;;
38937;SDS011;24727;51.974;20.868;2023-02-17T08:29:13;49.90;;;26.42;;
38937;SDS011;24727;51.974;20.868;2023-02-17T08:31:40;47.47;;;25.13;;
38937;SDS011;24727;51.974;20.868;2023-02-17T08:34:08;45.42;;;25.27;;
38937;SDS011;24727;51.974;20.868;2023-02-17T08:36:36;43.60;;;24.13;;
38937;SDS011;24727;51.974;20.868;2023-02-17T08:39:03;46.20;;;23.88;;
38937;SDS011;24727;51.974;20.868;2023-02-17T08:41:32;50.80;;;25.02;;
38937;SDS011;24727;51.974;20.868;2023-02-17T08:44:01;47.03;;;23.58;;
38937;SDS011;24727;51.974;20.868;2023-02-17T08:46:33;50.53;;;23.83;;
38937;SDS011;24727;51.974;20.868;2023-02-17T08:49:00;46.78;;;24.02;;
38937;SDS011;24727;51.974;20.868;2023-02-17T08:51:27;49.22;;;24.55;;
38937;SDS011;24727;51.974;20.868;2023-02-17T08:53:54;46.35;;;22.00;;
38937;SDS011;24727;51.974;20.868;2023-02-17T08:56:22;48.47;;;24.27;;
38937;SDS011;24727;51.974;20.868;2023-02-17T08:58:50;45.90;;;24.73;;
38937;SDS011;24727;51.974;20.868;2023-02-17T09:01:17;47.33;;;26.30;;
38937;SDS011;24727;51.974;20.868;2023-02-17T09:03:45;49.42;;;24.38;;
38937;SDS011;24727;51.974;20.868;2023-02-17T09:06:12;48.20;;;24.73;;
38937;SDS011;24727;51.974;20.868;2023-02-17T09:08:40;44.25;;;23.48;;
38937;SDS011;24727;51.974;20.868;2023-02-17T09:11:14;45.10;;;23.20;;
38937;SDS011;24727;51.974;20.868;2023-02-17T09:13:44;47.83;;;23.20;;
38937;SDS011;24727;51.974;20.868;2023-02-17T09:16:10;44.75;;;23.92;;
38937;SDS011;24727;51.974;20.868;2023-02-17T09:18:36;44.10;;;23.20;;
38937;SDS011;24727;51.974;20.868;2023-02-17T09:21:06;43.17;;;23.80;;
38937;SDS011;24727;51.974;20.868;2023-02-17T09:23:33;44.50;;;24.37;;
38937;SDS011;24727;51.974;20.868;2023-02-17T09:28:45;44.13;;;22.38;;
38937;SDS011;24727;51.974;20.868;2023-02-17T09:31:13;44.03;;;24.73;;
38937;SDS011;24727;51.974;20.868;2023-02-17T09:33:41;43.53;;;24.23;;
38937;SDS011;24727;51.974;20.868;2023-02-17T09:36:09;45.97;;;23.77;;
38937;SDS011;24727;51.974;20.868;2023-02-17T09:38:37;43.92;;;24.85;;
38937;SDS011;24727;51.974;20.868;2023-02-17T09:41:30;47.38;;;24.48;;
38937;SDS011;24727;51.974;20.868;2023-02-17T09:44:05;47.85;;;24.67;;
38937;SDS011;24727;51.974;20.868;2023-02-17T09:46:48;45.92;;;24.38;;
38937;SDS011;24727;51.974;20.868;2023-02-17T09:49:40;46.33;;;23.83;;
38937;SDS011;24727;51.974;20.868;2023-02-17T09:54:52;46.78;;;24.65;;
38937;SDS011;24727;51.974;20.868;2023-02-17T09:57:52;48.28;;;26.52;;
38937;SDS011;24727;51.974;20.868;2023-02-17T10:00:45;46.97;;;26.23;;
38937;SDS011;24727;51.974;20.868;2023-02-17T10:03:19;44.13;;;25.40;;
38937;SDS011;24727;51.974;20.868;2023-02-17T10:06:16;47.88;;;25.25;;
38937;SDS011;24727;51.974;20.868;2023-02-17T10:08:52;47.00;;;24.20;;
38937;SDS011;24727;51.974;20.868;2023-02-17T10:11:30;45.90;;;23.70;;
38937;SDS011;24727;51.974;20.868;2023-02-17T10:14:23;47.22;;;25.83;;
38937;SDS011;24727;51.974;20.868;2023-02-17T10:17:05;51.72;;;27.30;;
38937;SDS011;24727;51.974;20.868;2023-02-17T10:20:39;49.75;;;26.00;;
38937;SDS011;24727;51.974;20.868;2023-02-17T10:22:41;47.28;;;26.80;;
38937;SDS011;24727;51.974;20.868;2023-02-17T10:25:23;53.42;;;28.23;;
38937;SDS011;24727;51.974;20.868;2023-02-17T10:28:08;53.80;;;27.45;;
38937;SDS011;24727;51.974;20.868;2023-02-17T10:30:51;52.05;;;28.70;;
38937;SDS011;24727;51.974;20.868;2023-02-17T10:33:34;60.42;;;30.65;;
38937;SDS011;24727;51.974;20.868;2023-02-17T10:36:13;59.20;;;33.33;;
38937;SDS011;24727;51.974;20.868;2023-02-17T10:39:21;54.65;;;29.30;;
38937;SDS011;24727;51.974;20.868;2023-02-17T10:41:40;58.30;;;31.00;;
38937;SDS011;24727;51.974;20.868;2023-02-17T10:44:12;60.10;;;32.00;;
38937;SDS011;24727;51.974;20.868;2023-02-17T10:46:47;54.72;;;30.92;;
38937;SDS011;24727;51.974;20.868;2023-02-17T10:49:26;57.28;;;30.08;;
38937;SDS011;24727;51.974;20.868;2023-02-17T10:51:53;49.92;;;27.48;;
38937;SDS011;24727;51.974;20.868;2023-02-17T10:54:34;58.75;;;29.92;;
38937;SDS011;24727;51.974;20.868;2023-02-17T10:57:04;54.03;;;29.52;;
38937;SDS011;24727;51.974;20.868;2023-02-17T10:59:39;57.67;;;30.58;;
38937;SDS011;24727;51.974;20.868;2023-02-17T11:02:16;71.10;;;32.75;;
38937;SDS011;24727;51.974;20.868;2023-02-17T11:04:44;66.72;;;33.83;;
38937;SDS011;24727;51.974;20.868;2023-02-17T11:07:15;61.28;;;35.17;;
38937;SDS011;24727;51.974;20.868;2023-02-17T11:09:51;81.43;;;37.25;;
38937;SDS011;24727;51.974;20.868;2023-02-17T11:12:24;66.80;;;34.38;;
38937;SDS011;24727;51.974;20.868;2023-02-17T11:14:59;70.25;;;34.67;;
38937;SDS011;24727;51.974;20.868;2023-02-17T11:17:30;77.70;;;35.95;;
38937;SDS011;24727;51.974;20.868;2023-02-17T11:20:04;69.07;;;36.78;;
38937;SDS011;24727;51.974;20.868;2023-02-17T11:27:57;73.75;;;35.42;;
38937;SDS011;24727;51.974;20.868;2023-02-17T11:30:26;66.53;;;32.78;;
38937;SDS011;24727;51.974;20.868;2023-02-17T11:32:53;68.65;;;34.60;;
38937;SDS011;24727;51.974;20.868;2023-02-17T11:38:19;67.25;;;33.95;;
38937;SDS011;24727;51.974;20.868;2023-02-17T11:40:54;56.58;;;32.22;;
38937;SDS011;24727;51.974;20.868;2023-02-17T11:43:28;61.67;;;33.33;;
38937;SDS011;24727;51.974;20.868;2023-02-17T11:52:13;58.78;;;30.50;;
38937;SDS011;24727;51.974;20.868;2023-02-17T11:58:17;59.40;;;29.08;;
38937;SDS011;24727;51.974;20.868;2023-02-17T12:04:31;55.63;;;27.70;;
38937;SDS011;24727;51.974;20.868;2023-02-17T12:07:31;52.80;;;28.50;;
38937;SDS011;24727;51.974;20.868;2023-02-17T12:17:54;52.85;;;25.60;;
38937;SDS011;24727;51.974;20.868;2023-02-17T12:20:30;50.75;;;27.15;;
38937;SDS011;24727;51.974;20.868;2023-02-17T12:23:23;46.92;;;27.33;;
38937;SDS011;24727;51.974;20.868;2023-02-17T12:29:03;44.90;;;26.02;;
38937;SDS011;24727;51.974;20.868;2023-02-17T12:34:24;47.05;;;26.25;;
38937;SDS011;24727;51.974;20.868;2023-02-17T12:36:59;45.17;;;25.70;;
38937;SDS011;24727;51.974;20.868;2023-02-17T12:42:16;45.58;;;25.67;;
38937;SDS011;24727;51.974;20.868;2023-02-17T12:44:54;45.67;;;24.25;;
38937;SDS011;24727;51.974;20.868;2023-02-17T12:47:38;47.03;;;25.42;;
38937;SDS011;24727;51.974;20.868;2023-02-17T12:50:32;47.83;;;26.45;;
38937;SDS011;24727;51.974;20.868;2023-02-17T12:53:04;44.10;;;24.52;;
38937;SDS011;24727;51.974;20.868;2023-02-17T12:55:43;46.00;;;25.25;;
38937;SDS011;24727;51.974;20.868;2023-02-17T12:58:15;43.65;;;26.25;;
38937;SDS011;24727;51.974;20.868;2023-02-17T13:00:51;44.88;;;23.80;;
38937;SDS011;24727;51.974;20.868;2023-02-17T13:03:33;46.20;;;26.25;;
38937;SDS011;24727;51.974;20.868;2023-02-17T13:11:29;45.13;;;26.10;;
38937;SDS011;24727;51.974;20.868;2023-02-17T13:14:09;48.55;;;25.70;;
38937;SDS011;24727;51.974;20.868;2023-02-17T13:16:44;48.88;;;24.77;;
38937;SDS011;24727;51.974;20.868;2023-02-17T13:19:11;47.45;;;25.05;;
38937;SDS011;24727;51.974;20.868;2023-02-17T13:21:52;44.88;;;24.00;;
38937;SDS011;24727;51.974;20.868;2023-02-17T13:24:34;51.83;;;26.40;;
38937;SDS011;24727;51.974;20.868;2023-02-17T13:27:09;43.10;;;23.45;;
38937;SDS011;24727;51.974;20.868;2023-02-17T13:29:39;41.33;;;22.63;;
38937;SDS011;24727;51.974;20.868;2023-02-17T13:32:06;46.28;;;25.00;;
38937;SDS011;24727;51.974;20.868;2023-02-17T13:34:36;45.55;;;24.30;;
38937;SDS011;24727;51.974;20.868;2023-02-17T13:37:24;44.13;;;24.77;;
38937;SDS011;24727;51.974;20.868;2023-02-17T13:39:58;43.15;;;23.90;;
38937;SDS011;24727;51.974;20.868;2023-02-17T13:45:10;42.42;;;24.80;;
38937;SDS011;24727;51.974;20.868;2023-02-17T13:47:39;42.90;;;21.85;;
38937;SDS011;24727;51.974;20.868;2023-02-17T13:50:06;47.20;;;24.55;;
38937;SDS011;24727;51.974;20.868;2023-02-17T13:52:50;41.28;;;22.83;;
38937;SDS011;24727;51.974;20.868;2023-02-17T13:55:22;45.00;;;24.27;;
38937;SDS011;24727;51.974;20.868;2023-02-17T13:57:52;44.75;;;24.73;;
38937;SDS011;24727;51.974;20.868;2023-02-17T14:02:57;47.20;;;26.55;;
38937;SDS011;24727;51.974;20.868;2023-02-17T14:05:35;45.80;;;25.00;;
38937;SDS011;24727;51.974;20.868;2023-02-17T14:10:45;41.30;;;22.15;;
38937;SDS011;24727;51.974;20.868;2023-02-17T14:13:12;49.60;;;27.75;;
38937;SDS011;24727;51.974;20.868;2023-02-17T14:15:52;45.95;;;24.23;;
38937;SDS011;24727;51.974;20.868;2023-02-17T14:21:08;42.28;;;24.20;;
38937;SDS011;24727;51.974;20.868;2023-02-17T14:23:43;46.13;;;25.05;;
38937;SDS011;24727;51.974;20.868;2023-02-17T14:26:13;49.97;;;26.35;;
38937;SDS011;24727;51.974;20.868;2023-02-17T14:29:00;45.95;;;24.90;;
38937;SDS011;24727;51.974;20.868;2023-02-17T14:31:42;50.58;;;25.95;;
38937;SDS011;24727;51.974;20.868;2023-02-17T14:34:23;51.28;;;24.63;;
38937;SDS011;24727;51.974;20.868;2023-02-17T14:37:08;47.35;;;24.55;;
38937;SDS011;24727;51.974;20.868;2023-02-17T14:39:41;47.55;;;24.10;;
38937;SDS011;24727;51.974;20.868;2023-02-17T14:42:07;45.95;;;25.60;;
38937;SDS011;24727;51.974;20.868;2023-02-17T14:44:34;47.53;;;26.48;;
38937;SDS011;24727;51.974;20.868;2023-02-17T14:47:01;45.97;;;24.20;;
38937;SDS011;24727;51.974;20.868;2023-02-17T14:49:26;50.45;;;26.67;;
38937;SDS011;24727;51.974;20.868;2023-02-17T14:51:52;46.88;;;25.92;;
38937;SDS011;24727;51.974;20.868;2023-02-17T14:54:19;45.42;;;24.98;;
38937;SDS011;24727;51.974;20.868;2023-02-17T14:57:05;48.67;;;25.70;;
38937;SDS011;24727;51.974;20.868;2023-02-17T14:59:32;47.42;;;24.45;;
38937;SDS011;24727;51.974;20.868;2023-02-17T15:01:58;44.03;;;22.90;;
38937;SDS011;24727;51.974;20.868;2023-02-17T15:04:25;50.53;;;27.20;;
38937;SDS011;24727;51.974;20.868;2023-02-17T15:06:52;43.25;;;24.23;;
38937;SDS011;24727;51.974;20.868;2023-02-17T15:09:20;49.58;;;26.25;;
38937;SDS011;24727;51.974;20.868;2023-02-17T15:11:52;52.67;;;26.83;;
38937;SDS011;24727;51.974;20.868;2023-02-17T15:14:20;46.88;;;25.90;;
38937;SDS011;24727;51.974;20.868;2023-02-17T15:16:46;45.70;;;25.50;;
38937;SDS011;24727;51.974;20.868;2023-02-17T15:19:13;51.75;;;26.50;;
38937;SDS011;24727;51.974;20.868;2023-02-17T15:21:45;50.88;;;26.75;;
38937;SDS011;24727;51.974;20.868;2023-02-17T15:24:16;56.50;;;29.47;;
38937;SDS011;24727;51.974;20.868;2023-02-17T15:26:49;48.92;;;26.48;;
38937;SDS011;24727;51.974;20.868;2023-02-17T15:29:20;52.40;;;26.38;;
38937;SDS011;24727;51.974;20.868;2023-02-17T15:31:48;49.22;;;27.50;;
38937;SDS011;24727;51.974;20.868;2023-02-17T15:34:16;49.80;;;27.02;;
38937;SDS011;24727;51.974;20.868;2023-02-17T15:36:45;45.30;;;26.95;;
38937;SDS011;24727;51.974;20.868;2023-02-17T15:39:13;49.03;;;29.45;;
38937;SDS011;24727;51.974;20.868;2023-02-17T15:41:41;48.80;;;27.80;;
38937;SDS011;24727;51.974;20.868;2023-02-17T15:44:13;44.70;;;25.50;;
38937;SDS011;24727;51.974;20.868;2023-02-17T15:46:43;47.28;;;26.50;;
38937;SDS011;24727;51.974;20.868;2023-02-17T15:49:11;46.72;;;25.13;;
38937;SDS011;24727;51.974;20.868;2023-02-17T15:51:38;51.50;;;27.50;;
38937;SDS011;24727;51.974;20.868;2023-02-17T15:54:04;52.08;;;27.50;;
38937;SDS011;24727;51.974;20.868;2023-02-17T15:56:34;43.55;;;25.30;;
38937;SDS011;24727;51.974;20.868;2023-02-17T15:59:08;47.92;;;27.02;;
38937;SDS011;24727;51.974;20.868;2023-02-17T16:01:50;45.07;;;24.83;;